sensor_id;sensor_type;location;lat;lon;timestamp;pressure;altitude;pressure_sealevel;temperature;humidity
14273;BME280;7220;49.450;11.052;2022-11-21T00:01:26;97161.34;;;4.38;100.00
14273;BME280;7220;49.450;11.052;2022-11-21T00:05:31;97167.19;;;4.45;100.00
14273;BME280;7220;49.450;11.052;2022-11-21T00:09:31;97163.41;;;4.31;100.00
14273;BME280;7220;49.450;11.052;2022-11-21T00:13:33;97169.25;;;4.38;100.00
14273;BME280;7220;49.450;11.052;2022-11-21T00:17:33;97163.06;;;4.39;100.00
14273;BME280;7220;49.450;11.052;2022-11-21T00:21:33;97136.88;;;4.36;100.00
14273;BME280;7220;49.450;11.052;2022-11-21T00:25:34;97151.19;;;4.49;100.00
14273;BME280;7220;49.450;11.052;2022-11-21T00:29:34;97129.50;;;4.44;100.00
14273;BME280;7220;49.450;11.052;2022-11-21T00:33:35;97136.38;;;4.47;100.00
14273;BME280;7220;49.450;11.052;2022-11-21T00:37:36;97133.06;;;4.43;100.00
14273;BME280;7220;49.450;11.052;2022-11-21T00:41:36;97130.91;;;4.51;100.00
14273;BME280;7220;49.450;11.052;2022-11-21T00:45:36;97125.66;;;4.51;100.00
14273;BME280;7220;49.450;11.052;2022-11-21T00:49:36;97124.75;;;4.52;100.00
14273;BME280;7220;49.450;11.052;2022-11-21T00:53:37;97127.88;;;4.61;100.00
14273;BME280;7220;49.450;11.052;2022-11-21T00:57:37;97120.88;;;4.60;100.00
14273;BME280;7220;49.450;11.052;2022-11-21T01:01:37;97114.56;;;4.64;100.00
14273;BME280;7220;49.450;11.052;2022-11-21T01:05:38;97127.34;;;4.71;100.00
14273;BME280;7220;49.450;11.052;2022-11-21T01:09:38;97099.53;;;4.66;100.00
14273;BME280;7220;49.450;11.052;2022-11-21T01:13:39;97127.75;;;4.81;100.00
14273;BME280;7220;49.450;11.052;2022-11-21T01:17:40;97090.28;;;4.76;100.00
14273;BME280;7220;49.450;11.052;2022-11-21T01:21:41;97101.22;;;4.86;100.00
14273;BME280;7220;49.450;11.052;2022-11-21T01:25:41;97098.06;;;4.97;100.00
14273;BME280;7220;49.450;11.052;2022-11-21T01:29:41;97102.13;;;5.21;100.00
14273;BME280;7220;49.450;11.052;2022-11-21T01:33:42;97094.16;;;5.05;100.00
14273;BME280;7220;49.450;11.052;2022-11-21T01:37:47;97111.13;;;5.17;100.00
14273;BME280;7220;49.450;11.052;2022-11-21T01:41:48;97113.91;;;5.14;100.00
14273;BME280;7220;49.450;11.052;2022-11-21T01:45:58;97125.00;;;5.21;100.00
14273;BME280;7220;49.450;11.052;2022-11-21T01:49:58;97111.44;;;5.11;100.00
14273;BME280;7220;49.450;11.052;2022-11-21T01:54:15;97122.34;;;5.21;100.00
14273;BME280;7220;49.450;11.052;2022-11-21T01:58:18;97119.56;;;5.07;100.00
14273;BME280;7220;49.450;11.052;2022-11-21T02:02:21;97106.97;;;4.94;100.00
14273;BME280;7220;49.450;11.052;2022-11-21T02:06:23;97118.06;;;5.01;100.00
14273;BME280;7220;49.450;11.052;2022-11-21T02:10:25;97106.84;;;4.97;100.00
14273;BME280;7220;49.450;11.052;2022-11-21T02:14:26;97114.34;;;5.05;100.00
14273;BME280;7220;49.450;11.052;2022-11-21T02:18:27;97106.91;;;4.96;100.00
14273;BME280;7220;49.450;11.052;2022-11-21T02:26:48;97109.38;;;4.99;100.00
14273;BME280;7220;49.450;11.052;2022-11-21T02:30:49;97106.59;;;5.02;100.00
14273;BME280;7220;49.450;11.052;2022-11-21T02:34:49;97099.56;;;5.02;100.00
14273;BME280;7220;49.450;11.052;2022-11-21T02:38:49;97089.41;;;4.95;100.00
14273;BME280;7220;49.450;11.052;2022-11-21T02:43:01;97109.38;;;4.99;100.00
14273;BME280;7220;49.450;11.052;2022-11-21T02:47:02;97094.09;;;4.88;100.00
14273;BME280;7220;49.450;11.052;2022-11-21T02:51:02;97079.91;;;4.73;100.00
14273;BME280;7220;49.450;11.052;2022-11-21T02:55:03;97096.81;;;4.86;100.00
14273;BME280;7220;49.450;11.052;2022-11-21T02:59:04;97090.28;;;4.76;100.00
14273;BME280;7220;49.450;11.052;2022-11-21T03:03:04;97090.28;;;4.76;100.00
14273;BME280;7220;49.450;11.052;2022-11-21T03:07:04;97094.00;;;4.72;100.00
14273;BME280;7220;49.450;11.052;2022-11-21T03:11:05;97072.25;;;4.68;100.00
14273;BME280;7220;49.450;11.052;2022-11-21T03:15:07;97098.06;;;4.79;100.00
14273;BME280;7220;49.450;11.052;2022-11-21T03:19:08;97092.09;;;4.76;100.00
14273;BME280;7220;49.450;11.052;2022-11-21T03:23:08;97093.72;;;4.78;100.00
14273;BME280;7220;49.450;11.052;2022-11-21T03:27:08;97063.63;;;4.65;100.00
14273;BME280;7220;49.450;11.052;2022-11-21T03:31:08;97092.09;;;4.76;100.00
14273;BME280;7220;49.450;11.052;2022-11-21T03:35:09;97084.53;;;4.68;100.00
14273;BME280;7220;49.450;11.052;2022-11-21T03:39:09;97067.91;;;4.67;100.00
14273;BME280;7220;49.450;11.052;2022-11-21T03:43:10;97062.91;;;4.61;100.00
14273;BME280;7220;49.450;11.052;2022-11-21T03:47:10;97058.31;;;4.66;100.00
14273;BME280;7220;49.450;11.052;2022-11-21T03:51:10;97050.63;;;4.62;100.00
14273;BME280;7220;49.450;11.052;2022-11-21T03:55:10;97053.03;;;4.66;100.00
14273;BME280;7220;49.450;11.052;2022-11-21T03:59:11;97057.31;;;4.69;100.00
14273;BME280;7220;49.450;11.052;2022-11-21T04:03:11;97057.31;;;4.69;100.00
14273;BME280;7220;49.450;11.052;2022-11-21T04:07:11;97057.31;;;4.69;100.00
14273;BME280;7220;49.450;11.052;2022-11-21T04:11:12;97049.41;;;4.69;100.00
14273;BME280;7220;49.450;11.052;2022-11-21T04:15:12;97057.00;;;4.75;100.00
14273;BME280;7220;49.450;11.052;2022-11-21T04:19:12;97046.63;;;4.89;100.00
14273;BME280;7220;49.450;11.052;2022-11-21T04:23:13;97051.16;;;4.87;100.00
14273;BME280;7220;49.450;11.052;2022-11-21T04:27:13;97024.31;;;4.62;100.00
14273;BME280;7220;49.450;11.052;2022-11-21T04:31:14;97064.31;;;4.87;100.00
14273;BME280;7220;49.450;11.052;2022-11-21T04:35:14;97051.28;;;4.84;100.00
14273;BME280;7220;49.450;11.052;2022-11-21T04:39:14;97042.31;;;4.88;100.00
14273;BME280;7220;49.450;11.052;2022-11-21T04:43:15;97043.38;;;4.84;100.00
14273;BME280;7220;49.450;11.052;2022-11-21T04:47:15;97042.47;;;4.85;100.00
14273;BME280;7220;49.450;11.052;2022-11-21T04:51:15;97039.97;;;4.82;100.00
14273;BME280;7220;49.450;11.052;2022-11-21T04:55:16;97050.94;;;4.92;100.00
14273;BME280;7220;49.450;11.052;2022-11-21T04:59:16;97053.00;;;4.85;100.00
14273;BME280;7220;49.450;11.052;2022-11-21T05:03:17;97066.63;;;4.94;100.00
14273;BME280;7220;49.450;11.052;2022-11-21T05:07:17;97048.03;;;4.97;100.00
14273;BME280;7220;49.450;11.052;2022-11-21T05:11:17;97061.19;;;4.97;100.00
14273;BME280;7220;49.450;11.052;2022-11-21T05:15:36;97050.66;;;4.97;100.00
14273;BME280;7220;49.450;11.052;2022-11-21T05:19:36;97040.53;;;4.89;100.00
14273;BME280;7220;49.450;11.052;2022-11-21T05:23:37;97049.13;;;4.93;100.00
14273;BME280;7220;49.450;11.052;2022-11-21T05:27:37;97049.91;;;4.95;100.00
14273;BME280;7220;49.450;11.052;2022-11-21T05:31:38;97054.41;;;4.93;100.00
14273;BME280;7220;49.450;11.052;2022-11-21T05:35:38;97043.78;;;4.77;100.00
14273;BME280;7220;49.450;11.052;2022-11-21T05:39:38;97032.00;;;4.66;100.00
14273;BME280;7220;49.450;11.052;2022-11-21T05:43:38;97056.38;;;4.70;100.00
14273;BME280;7220;49.450;11.052;2022-11-21T05:47:45;97058.09;;;4.71;100.00
14273;BME280;7220;49.450;11.052;2022-11-21T05:51:45;97056.47;;;4.68;100.00
14273;BME280;7220;49.450;11.052;2022-11-21T05:55:46;97065.97;;;4.71;100.00
14273;BME280;7220;49.450;11.052;2022-11-21T05:59:46;97060.00;;;4.67;100.00
14273;BME280;7220;49.450;11.052;2022-11-21T06:03:46;97059.31;;;4.64;100.00
14273;BME280;7220;49.450;11.052;2022-11-21T06:07:47;97059.38;;;4.62;100.00
14273;BME280;7220;49.450;11.052;2022-11-21T06:11:47;97068.19;;;4.61;100.00
14273;BME280;7220;49.450;11.052;2022-11-21T06:15:58;97063.88;;;4.60;100.00
14273;BME280;7220;49.450;11.052;2022-11-21T06:20:00;97061.47;;;4.55;100.00
14273;BME280;7220;49.450;11.052;2022-11-21T06:24:00;97064.09;;;4.55;100.00
14273;BME280;7220;49.450;11.052;2022-11-21T06:28:01;97071.31;;;4.50;100.00
14273;BME280;7220;49.450;11.052;2022-11-21T06:32:01;97069.69;;;4.48;100.00
14273;BME280;7220;49.450;11.052;2022-11-21T06:36:06;97056.22;;;4.36;100.00
14273;BME280;7220;49.450;11.052;2022-11-21T06:40:08;97074.88;;;4.49;100.00
14273;BME280;7220;49.450;11.052;2022-11-21T06:44:08;97076.59;;;4.50;100.00
14273;BME280;7220;49.450;11.052;2022-11-21T06:48:08;97092.75;;;4.62;100.00
14273;BME280;7220;49.450;11.052;2022-11-21T06:52:09;97101.41;;;4.64;100.00
14273;BME280;7220;49.450;11.052;2022-11-21T06:56:09;97091.09;;;4.59;100.00
14273;BME280;7220;49.450;11.052;2022-11-21T07:00:10;97088.75;;;4.53;100.00
14273;BME280;7220;49.450;11.052;2022-11-21T07:04:10;97106.72;;;4.62;100.00
14273;BME280;7220;49.450;11.052;2022-11-21T07:08:11;97082.34;;;4.58;100.00
14273;BME280;7220;49.450;11.052;2022-11-21T07:12:11;97091.63;;;4.48;100.00
14273;BME280;7220;49.450;11.052;2022-11-21T07:16:32;97104.25;;;4.59;100.00
14273;BME280;7220;49.450;11.052;2022-11-21T07:20:32;97110.66;;;4.53;100.00
14273;BME280;7220;49.450;11.052;2022-11-21T07:24:33;97101.69;;;4.57;100.00
14273;BME280;7220;49.450;11.052;2022-11-21T07:28:33;97110.75;;;4.52;100.00
14273;BME280;7220;49.450;11.052;2022-11-21T07:32:34;97097.59;;;4.52;100.00
14273;BME280;7220;49.450;11.052;2022-11-21T07:36:34;97096.63;;;4.53;100.00
14273;BME280;7220;49.450;11.052;2022-11-21T07:40:35;97111.88;;;4.65;100.00
14273;BME280;7220;49.450;11.052;2022-11-21T07:44:35;97094.50;;;4.61;100.00
14273;BME280;7220;49.450;11.052;2022-11-21T07:48:35;97093.56;;;4.62;100.00
14273;BME280;7220;49.450;11.052;2022-11-21T07:52:36;97105.25;;;4.76;100.00
14273;BME280;7220;49.450;11.052;2022-11-21T07:56:36;97084.41;;;4.71;100.00
14273;BME280;7220;49.450;11.052;2022-11-21T08:00:38;97080.19;;;4.67;100.00
14273;BME280;7220;49.450;11.052;2022-11-21T08:04:38;97104.72;;;4.86;100.00
14273;BME280;7220;49.450;11.052;2022-11-21T08:08:39;97103.63;;;4.90;100.00
14273;BME280;7220;49.450;11.052;2022-11-21T08:12:39;97106.44;;;5.05;100.00
14273;BME280;7220;49.450;11.052;2022-11-21T08:16:39;97106.59;;;5.02;100.00
14273;BME280;7220;49.450;11.052;2022-11-21T08:20:41;97132.28;;;5.16;100.00
14273;BME280;7220;49.450;11.052;2022-11-21T08:24:41;97099.63;;;5.01;100.00
14273;BME280;7220;49.450;11.052;2022-11-21T08:28:42;97114.91;;;5.12;100.00
14273;BME280;7220;49.450;11.052;2022-11-21T08:32:42;97101.16;;;5.05;100.00
14273;BME280;7220;49.450;11.052;2022-11-21T08:36:42;97105.25;;;5.12;100.00
14273;BME280;7220;49.450;11.052;2022-11-21T08:40:43;97109.41;;;5.16;100.00
14273;BME280;7220;49.450;11.052;2022-11-21T08:44:43;97106.41;;;5.24;100.00
14273;BME280;7220;49.450;11.052;2022-11-21T08:48:43;97110.22;;;5.36;100.00
14273;BME280;7220;49.450;11.052;2022-11-21T08:52:43;97113.00;;;5.50;100.00
14273;BME280;7220;49.450;11.052;2022-11-21T08:56:44;97108.19;;;5.59;100.00
14273;BME280;7220;49.450;11.052;2022-11-21T09:00:44;97105.16;;;5.66;100.00
14273;BME280;7220;49.450;11.052;2022-11-21T09:04:44;97112.03;;;5.69;100.00
14273;BME280;7220;49.450;11.052;2022-11-21T09:08:45;97113.75;;;5.70;100.00
14273;BME280;7220;49.450;11.052;2022-11-21T09:12:45;97135.84;;;5.85;100.00
14273;BME280;7220;49.450;11.052;2022-11-21T09:16:45;97100.41;;;5.73;100.00
14273;BME280;7220;49.450;11.052;2022-11-21T09:21:04;97129.56;;;6.05;100.00
14273;BME280;7220;49.450;11.052;2022-11-21T09:25:05;97124.81;;;6.12;100.00
14273;BME280;7220;49.450;11.052;2022-11-21T09:29:05;97120.06;;;6.19;100.00
14273;BME280;7220;49.450;11.052;2022-11-21T09:33:08;97118.28;;;6.19;100.00
14273;BME280;7220;49.450;11.052;2022-11-21T09:37:11;97129.78;;;6.34;100.00
14273;BME280;7220;49.450;11.052;2022-11-21T09:45:45;97126.41;;;6.48;100.00
14273;BME280;7220;49.450;11.052;2022-11-21T09:49:55;97125.56;;;6.47;100.00
14273;BME280;7220;49.450;11.052;2022-11-21T09:53:57;97147.56;;;6.64;100.00
14273;BME280;7220;49.450;11.052;2022-11-21T10:02:31;97147.88;;;6.74;100.00
14273;BME280;7220;49.450;11.052;2022-11-21T10:06:42;97144.66;;;6.85;100.00
14273;BME280;7220;49.450;11.052;2022-11-21T10:19:00;97097.78;;;7.04;100.00
14273;BME280;7220;49.450;11.052;2022-11-21T10:27:37;97103.34;;;7.30;100.00
14273;BME280;7220;49.450;11.052;2022-11-21T10:31:41;97099.84;;;7.30;100.00
14273;BME280;7220;49.450;11.052;2022-11-21T10:35:54;97104.69;;;7.37;100.00
14273;BME280;7220;49.450;11.052;2022-11-21T10:39:57;97095.50;;;7.29;99.23
14273;BME280;7220;49.450;11.052;2022-11-21T10:44:03;97104.56;;;7.24;99.13
14273;BME280;7220;49.450;11.052;2022-11-21T10:48:26;97100.16;;;7.09;97.40
14273;BME280;7220;49.450;11.052;2022-11-21T10:52:30;97121.97;;;7.13;97.85
14273;BME280;7220;49.450;11.052;2022-11-21T10:56:33;97111.94;;;7.03;98.05
14273;BME280;7220;49.450;11.052;2022-11-21T11:00:35;97107.38;;;7.05;98.33
14273;BME280;7220;49.450;11.052;2022-11-21T11:04:36;97122.25;;;7.08;99.72
14273;BME280;7220;49.450;11.052;2022-11-21T11:08:50;97105.09;;;6.99;100.00
14273;BME280;7220;49.450;11.052;2022-11-21T11:12:54;97112.44;;;6.94;100.00
14273;BME280;7220;49.450;11.052;2022-11-21T11:17:13;97093.03;;;6.95;100.00
14273;BME280;7220;49.450;11.052;2022-11-21T11:21:20;97087.03;;;7.07;100.00
14273;BME280;7220;49.450;11.052;2022-11-21T11:25:21;97071.28;;;6.90;100.00
14273;BME280;7220;49.450;11.052;2022-11-21T11:29:32;97042.78;;;6.81;100.00
14273;BME280;7220;49.450;11.052;2022-11-21T11:33:39;97062.00;;;6.83;100.00
14273;BME280;7220;49.450;11.052;2022-11-21T11:37:42;97074.94;;;7.03;100.00
14273;BME280;7220;49.450;11.052;2022-11-21T11:50:52;97061.91;;;7.00;99.20
14273;BME280;7220;49.450;11.052;2022-11-21T11:54:59;97060.19;;;6.99;100.00
14273;BME280;7220;49.450;11.052;2022-11-21T12:03:15;97055.69;;;7.01;96.38
14273;BME280;7220;49.450;11.052;2022-11-21T12:07:27;97047.44;;;6.91;97.91
14273;BME280;7220;49.450;11.052;2022-11-21T12:16:00;97030.91;;;7.49;96.88
14273;BME280;7220;49.450;11.052;2022-11-21T12:20:07;97035.78;;;7.40;95.82
14273;BME280;7220;49.450;11.052;2022-11-21T12:24:12;97019.34;;;7.21;96.51
14273;BME280;7220;49.450;11.052;2022-11-21T12:28:22;96999.22;;;7.18;97.03
14273;BME280;7220;49.450;11.052;2022-11-21T12:32:44;97011.59;;;7.32;97.44
14273;BME280;7220;49.450;11.052;2022-11-21T12:36:59;97011.31;;;7.22;96.70
14273;BME280;7220;49.450;11.052;2022-11-21T12:45:33;97006.28;;;7.03;97.48
14273;BME280;7220;49.450;11.052;2022-11-21T12:49:51;96992.28;;;7.01;98.91
14273;BME280;7220;49.450;11.052;2022-11-21T12:58:44;96986.03;;;7.90;96.49
14273;BME280;7220;49.450;11.052;2022-11-21T13:07:28;96970.75;;;7.81;97.07
14273;BME280;7220;49.450;11.052;2022-11-21T13:16:06;96973.69;;;7.62;95.52
14273;BME280;7220;49.450;11.052;2022-11-21T13:20:31;96968.00;;;7.54;95.87
14273;BME280;7220;49.450;11.052;2022-11-21T13:28:45;96967.28;;;7.66;94.81
14273;BME280;7220;49.450;11.052;2022-11-21T13:32:51;96957.84;;;7.77;94.45
14273;BME280;7220;49.450;11.052;2022-11-21T13:36:52;96934.78;;;7.93;93.03
14273;BME280;7220;49.450;11.052;2022-11-21T13:40:53;96955.13;;;8.05;92.28
14273;BME280;7220;49.450;11.052;2022-11-21T13:45:51;96936.81;;;8.02;89.34
14273;BME280;7220;49.450;11.052;2022-11-21T13:54:40;96938.28;;;7.79;85.35
14273;BME280;7220;49.450;11.052;2022-11-21T13:59:20;96924.56;;;7.72;83.39
14273;BME280;7220;49.450;11.052;2022-11-21T14:03:36;96917.31;;;7.62;83.65
14273;BME280;7220;49.450;11.052;2022-11-21T14:07:42;96920.25;;;7.57;83.21
14273;BME280;7220;49.450;11.052;2022-11-21T14:24:24;96909.19;;;7.50;83.29
14273;BME280;7220;49.450;11.052;2022-11-21T14:28:30;96923.16;;;7.52;82.79
14273;BME280;7220;49.450;11.052;2022-11-21T14:32:31;96909.56;;;7.44;82.98
14273;BME280;7220;49.450;11.052;2022-11-21T14:36:31;96907.59;;;7.48;83.33
14273;BME280;7220;49.450;11.052;2022-11-21T14:40:31;96917.06;;;7.52;83.19
14273;BME280;7220;49.450;11.052;2022-11-21T14:44:32;96881.94;;;7.21;83.41
14273;BME280;7220;49.450;11.052;2022-11-21T14:48:32;96897.97;;;7.32;82.55
14273;BME280;7220;49.450;11.052;2022-11-21T14:52:32;96892.78;;;7.31;82.91
14273;BME280;7220;49.450;11.052;2022-11-21T14:56:33;96871.56;;;7.18;83.94
14273;BME280;7220;49.450;11.052;2022-11-21T15:00:33;96879.84;;;7.26;85.44
14273;BME280;7220;49.450;11.052;2022-11-21T15:04:34;96863.63;;;7.18;85.90
14273;BME280;7220;49.450;11.052;2022-11-21T15:08:36;96859.19;;;7.18;86.42
14273;BME280;7220;49.450;11.052;2022-11-21T15:16:49;96844.94;;;7.06;88.16
14273;BME280;7220;49.450;11.052;2022-11-21T15:20:52;96813.34;;;6.90;89.46
14273;BME280;7220;49.450;11.052;2022-11-21T15:25:06;96814.09;;;6.92;90.07
14273;BME280;7220;49.450;11.052;2022-11-21T15:29:20;96809.75;;;6.77;91.54
14273;BME280;7220;49.450;11.052;2022-11-21T15:33:20;96799.66;;;6.69;92.58
14273;BME280;7220;49.450;11.052;2022-11-21T15:37:20;96777.59;;;6.56;92.63
14273;BME280;7220;49.450;11.052;2022-11-21T15:41:30;96764.28;;;6.43;93.86
14273;BME280;7220;49.450;11.052;2022-11-21T15:45:31;96764.53;;;6.38;94.48
14273;BME280;7220;49.450;11.052;2022-11-21T15:49:31;96775.66;;;6.29;95.22
14273;BME280;7220;49.450;11.052;2022-11-21T15:53:31;96789.00;;;6.26;95.85
14273;BME280;7220;49.450;11.052;2022-11-21T15:57:32;96782.50;;;6.17;96.20
14273;BME280;7220;49.450;11.052;2022-11-21T16:01:32;96807.44;;;6.11;96.85
14273;BME280;7220;49.450;11.052;2022-11-21T16:05:33;96803.00;;;5.96;97.66
14273;BME280;7220;49.450;11.052;2022-11-21T16:09:33;96787.72;;;5.87;98.18
14273;BME280;7220;49.450;11.052;2022-11-21T16:13:35;96774.06;;;5.80;99.28
14273;BME280;7220;49.450;11.052;2022-11-21T16:17:35;96772.16;;;5.82;99.35
14273;BME280;7220;49.450;11.052;2022-11-21T16:21:35;96780.34;;;5.77;100.00
14273;BME280;7220;49.450;11.052;2022-11-21T16:25:37;96751.88;;;5.68;100.00
14273;BME280;7220;49.450;11.052;2022-11-21T16:29:37;96741.50;;;5.65;100.00
14273;BME280;7220;49.450;11.052;2022-11-21T16:33:38;96739.66;;;5.67;100.00
14273;BME280;7220;49.450;11.052;2022-11-21T16:37:38;96736.41;;;5.62;100.00
14273;BME280;7220;49.450;11.052;2022-11-21T16:41:38;96736.50;;;5.60;100.00
14273;BME280;7220;49.450;11.052;2022-11-21T16:45:40;96711.59;;;5.50;100.00
14273;BME280;7220;49.450;11.052;2022-11-21T16:49:40;96716.03;;;5.49;100.00
14273;BME280;7220;49.450;11.052;2022-11-21T16:53:47;96728.50;;;5.62;100.00
14273;BME280;7220;49.450;11.052;2022-11-21T16:57:48;96695.63;;;5.53;100.00
14273;BME280;7220;49.450;11.052;2022-11-21T17:01:48;96695.63;;;5.53;100.00
14273;BME280;7220;49.450;11.052;2022-11-21T17:05:56;96707.00;;;5.53;100.00
14273;BME280;7220;49.450;11.052;2022-11-21T17:09:56;96694.44;;;5.43;100.00
14273;BME280;7220;49.450;11.052;2022-11-21T17:14:02;96691.34;;;5.36;100.00
14273;BME280;7220;49.450;11.052;2022-11-21T17:18:03;96686.50;;;5.28;100.00
14273;BME280;7220;49.450;11.052;2022-11-21T17:22:03;96673.56;;;5.24;100.00
14273;BME280;7220;49.450;11.052;2022-11-21T17:26:06;96674.94;;;5.31;100.00
14273;BME280;7220;49.450;11.052;2022-11-21T17:30:07;96650.59;;;5.11;100.00
14273;BME280;7220;49.450;11.052;2022-11-21T17:34:07;96629.25;;;5.00;100.00
14273;BME280;7220;49.450;11.052;2022-11-21T17:38:08;96630.97;;;5.01;100.00
14273;BME280;7220;49.450;11.052;2022-11-21T17:42:08;96615.88;;;4.88;100.00
14273;BME280;7220;49.450;11.052;2022-11-21T17:46:11;96634.22;;;4.90;100.00
14273;BME280;7220;49.450;11.052;2022-11-21T17:50:12;96612.16;;;4.77;100.00
14273;BME280;7220;49.450;11.052;2022-11-21T17:54:12;96609.59;;;4.75;100.00
14273;BME280;7220;49.450;11.052;2022-11-21T17:58:12;96630.06;;;4.70;100.00
14273;BME280;7220;49.450;11.052;2022-11-21T18:02:13;96614.44;;;4.67;100.00
14273;BME280;7220;49.450;11.052;2022-11-21T18:06:15;96606.53;;;4.67;100.00
14273;BME280;7220;49.450;11.052;2022-11-21T18:10:15;96609.41;;;4.62;100.00
14273;BME280;7220;49.450;11.052;2022-11-21T18:14:16;96610.63;;;4.56;100.00
14273;BME280;7220;49.450;11.052;2022-11-21T18:18:16;96607.28;;;4.53;100.00
14273;BME280;7220;49.450;11.052;2022-11-21T18:22:16;96575.47;;;4.41;100.00
14273;BME280;7220;49.450;11.052;2022-11-21T18:26:19;96592.09;;;4.42;100.00
14273;BME280;7220;49.450;11.052;2022-11-21T18:30:20;96575.41;;;4.27;100.00
14273;BME280;7220;49.450;11.052;2022-11-21T18:34:20;96591.91;;;4.29;100.00
14273;BME280;7220;49.450;11.052;2022-11-21T18:38:21;96575.69;;;4.21;100.00
14273;BME280;7220;49.450;11.052;2022-11-21T18:42:21;96587.00;;;4.23;100.00
14273;BME280;7220;49.450;11.052;2022-11-21T18:46:22;96568.69;;;4.21;100.00
14273;BME280;7220;49.450;11.052;2022-11-21T18:50:23;96551.44;;;4.16;100.00
14273;BME280;7220;49.450;11.052;2022-11-21T18:54:23;96543.91;;;4.09;100.00
14273;BME280;7220;49.450;11.052;2022-11-21T18:58:25;96537.19;;;4.04;100.00
14273;BME280;7220;49.450;11.052;2022-11-21T19:02:25;96540.94;;;4.00;100.00
14273;BME280;7220;49.450;11.052;2022-11-21T19:06:26;96536.94;;;4.08;100.00
14273;BME280;7220;49.450;11.052;2022-11-21T19:10:27;96521.75;;;3.98;100.00
14273;BME280;7220;49.450;11.052;2022-11-21T19:14:27;96518.25;;;3.97;100.00
14273;BME280;7220;49.450;11.052;2022-11-21T19:18:31;96534.66;;;4.02;100.00
14273;BME280;7220;49.450;11.052;2022-11-21T19:22:32;96512.50;;;3.90;100.00
14273;BME280;7220;49.450;11.052;2022-11-21T19:26:32;96496.91;;;3.87;100.00
14273;BME280;7220;49.450;11.052;2022-11-21T19:30:32;96503.19;;;3.85;100.00
14273;BME280;7220;49.450;11.052;2022-11-21T19:34:35;96514.38;;;3.88;100.00
14273;BME280;7220;49.450;11.052;2022-11-21T19:38:36;96534.03;;;3.81;100.00
14273;BME280;7220;49.450;11.052;2022-11-21T19:42:37;96529.78;;;3.78;100.00
14273;BME280;7220;49.450;11.052;2022-11-21T19:46:38;96529.25;;;3.72;100.00
14273;BME280;7220;49.450;11.052;2022-11-21T19:50:39;96534.50;;;3.72;100.00
14273;BME280;7220;49.450;11.052;2022-11-21T19:54:39;96535.88;;;3.79;100.00
14273;BME280;7220;49.450;11.052;2022-11-21T19:58:40;96526.91;;;3.83;100.00
14273;BME280;7220;49.450;11.052;2022-11-21T20:02:41;96501.97;;;3.74;100.00
14273;BME280;7220;49.450;11.052;2022-11-21T20:06:42;96501.22;;;3.88;100.00
14273;BME280;7220;49.450;11.052;2022-11-21T20:10:44;96499.44;;;3.89;100.00
14273;BME280;7220;49.450;11.052;2022-11-21T20:14:45;96477.28;;;3.77;100.00
14273;BME280;7220;49.450;11.052;2022-11-21T20:18:45;96492.06;;;3.79;100.00
14273;BME280;7220;49.450;11.052;2022-11-21T20:22:46;96484.88;;;3.83;100.00
14273;BME280;7220;49.450;11.052;2022-11-21T20:26:46;96488.91;;;3.89;100.00
14273;BME280;7220;49.450;11.052;2022-11-21T20:30:46;96458.75;;;3.80;100.00
14273;BME280;7220;49.450;11.052;2022-11-21T20:34:47;96460.28;;;3.84;100.00
14273;BME280;7220;49.450;11.052;2022-11-21T20:38:58;96441.31;;;3.95;100.00
14273;BME280;7220;49.450;11.052;2022-11-21T20:42:59;96405.19;;;3.83;100.00
14273;BME280;7220;49.450;11.052;2022-11-21T20:46:59;96411.72;;;3.91;100.00
14273;BME280;7220;49.450;11.052;2022-11-21T20:51:00;96415.19;;;3.92;100.00
14273;BME280;7220;49.450;11.052;2022-11-21T20:55:00;96433.66;;;3.90;100.00
14273;BME280;7220;49.450;11.052;2022-11-21T20:59:01;96433.47;;;3.93;100.00
14273;BME280;7220;49.450;11.052;2022-11-21T21:03:02;96420.53;;;3.90;100.00
14273;BME280;7220;49.450;11.052;2022-11-21T21:07:02;96392.81;;;3.85;100.00
14273;BME280;7220;49.450;11.052;2022-11-21T21:11:03;96407.19;;;3.93;100.00
14273;BME280;7220;49.450;11.052;2022-11-21T21:15:04;96366.03;;;3.78;100.00
14273;BME280;7220;49.450;11.052;2022-11-21T21:19:04;96395.03;;;3.92;100.00
14273;BME280;7220;49.450;11.052;2022-11-21T21:23:05;96385.34;;;3.93;100.00
14273;BME280;7220;49.450;11.052;2022-11-21T21:27:05;96368.66;;;3.78;100.00
14273;BME280;7220;49.450;11.052;2022-11-21T21:31:07;96360.94;;;3.75;100.00
14273;BME280;7220;49.450;11.052;2022-11-21T21:35:07;96385.69;;;3.87;100.00
14273;BME280;7220;49.450;11.052;2022-11-21T21:39:08;96377.72;;;3.88;100.00
14273;BME280;7220;49.450;11.052;2022-11-21T21:43:08;96371.13;;;3.81;100.00
14273;BME280;7220;49.450;11.052;2022-11-21T21:47:09;96351.78;;;3.66;100.00
14273;BME280;7220;49.450;11.052;2022-11-21T21:51:15;96379.75;;;3.83;100.00
14273;BME280;7220;49.450;11.052;2022-11-21T21:55:16;96399.84;;;3.84;100.00
14273;BME280;7220;49.450;11.052;2022-11-21T21:59:16;96396.81;;;3.76;100.00
14273;BME280;7220;49.450;11.052;2022-11-21T22:03:18;96402.47;;;3.84;100.00
14273;BME280;7220;49.450;11.052;2022-11-21T22:07:19;96382.91;;;3.74;100.00
14273;BME280;7220;49.450;11.052;2022-11-21T22:11:21;96392.13;;;3.81;100.00
14273;BME280;7220;49.450;11.052;2022-11-21T22:15:22;96377.19;;;3.82;100.00
14273;BME280;7220;49.450;11.052;2022-11-21T22:19:22;96360.03;;;3.76;100.00
14273;BME280;7220;49.450;11.052;2022-11-21T22:23:23;96372.47;;;3.88;100.00
14273;BME280;7220;49.450;11.052;2022-11-21T22:27:23;96369.94;;;3.87;100.00
14273;BME280;7220;49.450;11.052;2022-11-21T22:31:23;96364.72;;;3.85;100.00
14273;BME280;7220;49.450;11.052;2022-11-21T22:35:24;96363.66;;;3.89;100.00
14273;BME280;7220;49.450;11.052;2022-11-21T22:39:24;96355.66;;;3.91;100.00
14273;BME280;7220;49.450;11.052;2022-11-21T22:43:24;96360.34;;;3.86;100.00
14273;BME280;7220;49.450;11.052;2022-11-21T22:47:25;96380.91;;;3.93;100.00
14273;BME280;7220;49.450;11.052;2022-11-21T22:51:27;96380.25;;;3.90;100.00
14273;BME280;7220;49.450;11.052;2022-11-21T22:55:28;96385.09;;;3.98;100.00